sensor_id;sensor_type;location;lat;lon;timestamp;P1;durP1;ratioP1;P2;durP2;ratioP2
17670;SDS011;8954;48.694;8.940;2023-03-01T07:09:25;11.63;;;10.53;;
17670;SDS011;8954;48.694;8.940;2023-03-01T07:11:51;11.30;;;10.03;;
17670;SDS011;8954;48.694;8.940;2023-03-01T07:14:16;0.00;;;0.00;;
17670;SDS011;8954;48.694;8.940;2023-03-01T07:16:42;6.70;;;6.17;;
17670;SDS011;8954;48.694;8.940;2023-03-01T07:19:07;0.00;;;0.00;;
17670;SDS011;8954;48.694;8.940;2023-03-01T07:21:33;4.80;;;3.60;;
17670;SDS011;8954;48.694;8.940;2023-03-01T07:23:58;5.47;;;4.90;;
17670;SDS011;8954;48.694;8.940;2023-03-01T07:26:24;7.50;;;5.03;;
17670;SDS011;8954;48.694;8.940;2023-03-01T07:28:49;4.07;;;3.83;;
17670;SDS011;8954;48.694;8.940;2023-03-01T07:31:15;3.70;;;3.50;;
17670;SDS011;8954;48.694;8.940;2023-03-01T07:33:40;2.77;;;2.67;;
17670;SDS011;8954;48.694;8.940;2023-03-01T07:36:06;2.20;;;2.10;;
17670;SDS011;8954;48.694;8.940;2023-03-01T07:38:32;1.05;;;1.02;;
17670;SDS011;8954;48.694;8.940;2023-03-01T07:41:01;0.70;;;0.70;;
17670;SDS011;8954;48.694;8.940;2023-03-01T07:43:28;0.50;;;0.47;;
17670;SDS011;8954;48.694;8.940;2023-03-01T07:45:57;0.00;;;0.00;;
17670;SDS011;8954;48.694;8.940;2023-03-01T07:48:24;0.00;;;0.00;;
17670;SDS011;8954;48.694;8.940;2023-03-01T07:50:49;1.27;;;1.27;;
17670;SDS011;8954;48.694;8.940;2023-03-01T07:53:15;4.10;;;4.00;;
17670;SDS011;8954;48.694;8.940;2023-03-01T07:55:40;0.00;;;0.00;;
17670;SDS011;8954;48.694;8.940;2023-03-01T07:58:06;0.00;;;0.00;;
17670;SDS011;8954;48.694;8.940;2023-03-01T08:00:31;0.00;;;0.00;;
17670;SDS011;8954;48.694;8.940;2023-03-01T08:03:00;0.00;;;0.00;;
17670;SDS011;8954;48.694;8.940;2023-03-01T08:05:26;0.00;;;0.00;;
17670;SDS011;8954;48.694;8.940;2023-03-01T08:07:53;0.00;;;0.00;;
17670;SDS011;8954;48.694;8.940;2023-03-01T08:10:19;0.00;;;0.00;;
17670;SDS011;8954;48.694;8.940;2023-03-01T08:12:44;2.80;;;2.70;;
17670;SDS011;8954;48.694;8.940;2023-03-01T08:15:10;3.10;;;3.00;;
17670;SDS011;8954;48.694;8.940;2023-03-01T08:17:36;1.60;;;1.60;;
17670;SDS011;8954;48.694;8.940;2023-03-01T08:20:01;0.23;;;0.23;;
17670;SDS011;8954;48.694;8.940;2023-03-01T08:22:29;1.70;;;1.70;;
17670;SDS011;8954;48.694;8.940;2023-03-01T08:24:54;4.57;;;4.47;;
17670;SDS011;8954;48.694;8.940;2023-03-01T08:27:20;1.20;;;1.20;;
17670;SDS011;8954;48.694;8.940;2023-03-01T08:29:46;0.00;;;0.00;;
17670;SDS011;8954;48.694;8.940;2023-03-01T08:32:12;5.32;;;5.13;;
17670;SDS011;8954;48.694;8.940;2023-03-01T08:34:37;0.10;;;0.03;;
17670;SDS011;8954;48.694;8.940;2023-03-01T08:37:03;0.00;;;0.00;;
17670;SDS011;8954;48.694;8.940;2023-03-01T08:39:29;0.00;;;0.00;;
17670;SDS011;8954;48.694;8.940;2023-03-01T08:41:54;0.00;;;0.00;;
17670;SDS011;8954;48.694;8.940;2023-03-01T08:44:20;0.00;;;0.00;;
17670;SDS011;8954;48.694;8.940;2023-03-01T08:46:46;0.00;;;0.00;;
17670;SDS011;8954;48.694;8.940;2023-03-01T08:49:13;0.00;;;0.00;;
17670;SDS011;8954;48.694;8.940;2023-03-01T08:51:40;0.00;;;0.00;;
17670;SDS011;8954;48.694;8.940;2023-03-01T08:54:07;0.10;;;0.00;;
17670;SDS011;8954;48.694;8.940;2023-03-01T08:56:36;0.00;;;0.00;;
17670;SDS011;8954;48.694;8.940;2023-03-01T08:59:03;0.00;;;0.00;;
17670;SDS011;8954;48.694;8.940;2023-03-01T09:01:29;0.00;;;0.00;;
17670;SDS011;8954;48.694;8.940;2023-03-01T09:03:55;0.00;;;0.00;;
17670;SDS011;8954;48.694;8.940;2023-03-01T09:06:20;0.00;;;0.00;;
17670;SDS011;8954;48.694;8.940;2023-03-01T09:08:47;0.00;;;0.00;;
17670;SDS011;8954;48.694;8.940;2023-03-01T09:11:15;0.00;;;0.00;;
17670;SDS011;8954;48.694;8.940;2023-03-01T09:13:45;0.00;;;0.00;;
17670;SDS011;8954;48.694;8.940;2023-03-01T09:16:13;0.00;;;0.00;;
17670;SDS011;8954;48.694;8.940;2023-03-01T09:18:40;0.00;;;0.00;;
17670;SDS011;8954;48.694;8.940;2023-03-01T09:21:06;0.00;;;0.00;;
17670;SDS011;8954;48.694;8.940;2023-03-01T09:23:34;0.00;;;0.00;;
17670;SDS011;8954;48.694;8.940;2023-03-01T09:26:05;0.00;;;0.00;;
17670;SDS011;8954;48.694;8.940;2023-03-01T09:28:31;0.00;;;0.00;;
17670;SDS011;8954;48.694;8.940;2023-03-01T09:30:58;0.00;;;0.00;;
17670;SDS011;8954;48.694;8.940;2023-03-01T09:33:24;0.00;;;0.00;;
17670;SDS011;8954;48.694;8.940;2023-03-01T09:35:55;0.00;;;0.00;;
17670;SDS011;8954;48.694;8.940;2023-03-01T09:38:32;0.00;;;0.00;;
17670;SDS011;8954;48.694;8.940;2023-03-01T09:40:58;0.00;;;0.00;;
17670;SDS011;8954;48.694;8.940;2023-03-01T09:43:26;0.00;;;0.00;;
17670;SDS011;8954;48.694;8.940;2023-03-01T09:46:09;0.00;;;0.00;;
17670;SDS011;8954;48.694;8.940;2023-03-01T09:48:42;0.00;;;0.00;;
17670;SDS011;8954;48.694;8.940;2023-03-01T09:51:22;0.00;;;0.00;;
17670;SDS011;8954;48.694;8.940;2023-03-01T09:53:58;0.00;;;0.00;;
17670;SDS011;8954;48.694;8.940;2023-03-01T09:56:34;0.00;;;0.00;;
17670;SDS011;8954;48.694;8.940;2023-03-01T09:59:23;0.00;;;0.00;;
17670;SDS011;8954;48.694;8.940;2023-03-01T10:04:49;0.00;;;0.00;;
17670;SDS011;8954;48.694;8.940;2023-03-01T10:07:36;0.00;;;0.00;;
17670;SDS011;8954;48.694;8.940;2023-03-01T10:10:16;0.00;;;0.00;;
17670;SDS011;8954;48.694;8.940;2023-03-01T10:13:20;0.00;;;0.00;;
17670;SDS011;8954;48.694;8.940;2023-03-01T10:16:04;0.00;;;0.00;;
17670;SDS011;8954;48.694;8.940;2023-03-01T10:18:55;0.00;;;0.00;;
17670;SDS011;8954;48.694;8.940;2023-03-01T10:21:25;0.00;;;0.00;;
17670;SDS011;8954;48.694;8.940;2023-03-01T10:23:52;0.00;;;0.00;;
17670;SDS011;8954;48.694;8.940;2023-03-01T10:26:25;0.00;;;0.00;;
17670;SDS011;8954;48.694;8.940;2023-03-01T10:29:08;0.00;;;0.00;;
17670;SDS011;8954;48.694;8.940;2023-03-01T10:34:27;0.00;;;0.00;;
17670;SDS011;8954;48.694;8.940;2023-03-01T10:42:39;0.00;;;0.00;;
17670;SDS011;8954;48.694;8.940;2023-03-01T10:50:46;0.00;;;0.00;;
17670;SDS011;8954;48.694;8.940;2023-03-01T10:53:24;0.00;;;0.00;;
17670;SDS011;8954;48.694;8.940;2023-03-01T10:56:07;0.00;;;0.00;;
17670;SDS011;8954;48.694;8.940;2023-03-01T10:58:35;0.00;;;0.00;;
17670;SDS011;8954;48.694;8.940;2023-03-01T11:01:06;0.00;;;0.00;;
17670;SDS011;8954;48.694;8.940;2023-03-01T11:06:31;0.00;;;0.00;;
17670;SDS011;8954;48.694;8.940;2023-03-01T11:09:01;0.00;;;0.00;;
17670;SDS011;8954;48.694;8.940;2023-03-01T11:11:43;0.00;;;0.00;;
17670;SDS011;8954;48.694;8.940;2023-03-01T11:16:45;0.00;;;0.00;;
17670;SDS011;8954;48.694;8.940;2023-03-01T11:19:15;0.00;;;0.00;;
17670;SDS011;8954;48.694;8.940;2023-03-01T11:24:34;0.00;;;0.00;;
17670;SDS011;8954;48.694;8.940;2023-03-01T11:27:05;0.00;;;0.00;;
17670;SDS011;8954;48.694;8.940;2023-03-01T11:29:55;0.00;;;0.00;;
17670;SDS011;8954;48.694;8.940;2023-03-01T11:32:43;0.00;;;0.00;;
17670;SDS011;8954;48.694;8.940;2023-03-01T11:35:17;0.00;;;0.00;;
17670;SDS011;8954;48.694;8.940;2023-03-01T11:37:56;0.00;;;0.00;;
17670;SDS011;8954;48.694;8.940;2023-03-01T11:40:43;0.00;;;0.00;;
17670;SDS011;8954;48.694;8.940;2023-03-01T11:43:19;0.00;;;0.00;;
17670;SDS011;8954;48.694;8.940;2023-03-01T11:45:55;0.00;;;0.00;;
17670;SDS011;8954;48.694;8.940;2023-03-01T11:50:58;0.00;;;0.00;;
17670;SDS011;8954;48.694;8.940;2023-03-01T11:53:33;0.00;;;0.00;;
17670;SDS011;8954;48.694;8.940;2023-03-01T11:58:56;0.00;;;0.00;;
17670;SDS011;8954;48.694;8.940;2023-03-01T12:06:59;0.00;;;0.00;;
17670;SDS011;8954;48.694;8.940;2023-03-01T12:12:48;0.00;;;0.00;;
17670;SDS011;8954;48.694;8.940;2023-03-01T12:21:30;0.00;;;0.00;;
17670;SDS011;8954;48.694;8.940;2023-03-01T12:32:47;0.00;;;0.00;;
17670;SDS011;8954;48.694;8.940;2023-03-01T12:35:43;0.00;;;0.00;;
17670;SDS011;8954;48.694;8.940;2023-03-01T12:46:21;0.00;;;0.00;;
17670;SDS011;8954;48.694;8.940;2023-03-01T12:48:56;0.00;;;0.00;;
17670;SDS011;8954;48.694;8.940;2023-03-01T12:51:27;0.00;;;0.00;;
17670;SDS011;8954;48.694;8.940;2023-03-01T12:53:55;0.00;;;0.00;;
17670;SDS011;8954;48.694;8.940;2023-03-01T12:56:24;0.00;;;0.00;;
17670;SDS011;8954;48.694;8.940;2023-03-01T13:06:58;0.00;;;0.00;;
17670;SDS011;8954;48.694;8.940;2023-03-01T13:15:30;0.00;;;0.00;;
17670;SDS011;8954;48.694;8.940;2023-03-01T13:18:40;0.00;;;0.00;;
17670;SDS011;8954;48.694;8.940;2023-03-01T13:20:53;0.00;;;0.00;;
17670;SDS011;8954;48.694;8.940;2023-03-01T13:30:59;0.15;;;0.00;;
17670;SDS011;8954;48.694;8.940;2023-03-01T13:35:52;0.00;;;0.00;;
17670;SDS011;8954;48.694;8.940;2023-03-01T13:41:14;0.00;;;0.00;;
17670;SDS011;8954;48.694;8.940;2023-03-01T13:43:41;0.00;;;0.00;;
17670;SDS011;8954;48.694;8.940;2023-03-01T13:46:15;0.00;;;0.00;;
17670;SDS011;8954;48.694;8.940;2023-03-01T13:48:45;0.00;;;0.00;;
17670;SDS011;8954;48.694;8.940;2023-03-01T13:51:15;0.00;;;0.00;;
17670;SDS011;8954;48.694;8.940;2023-03-01T13:53:42;0.00;;;0.00;;
17670;SDS011;8954;48.694;8.940;2023-03-01T13:56:32;0.00;;;0.00;;
17670;SDS011;8954;48.694;8.940;2023-03-01T13:59:05;0.20;;;0.00;;
17670;SDS011;8954;48.694;8.940;2023-03-01T14:01:40;0.00;;;0.00;;
17670;SDS011;8954;48.694;8.940;2023-03-01T14:04:20;0.00;;;0.00;;
17670;SDS011;8954;48.694;8.940;2023-03-01T14:06:48;0.00;;;0.00;;
17670;SDS011;8954;48.694;8.940;2023-03-01T14:14:43;0.00;;;0.00;;
17670;SDS011;8954;48.694;8.940;2023-03-01T14:17:23;0.00;;;0.00;;
17670;SDS011;8954;48.694;8.940;2023-03-01T14:19:57;0.00;;;0.00;;
17670;SDS011;8954;48.694;8.940;2023-03-01T14:22:33;0.03;;;0.00;;
17670;SDS011;8954;48.694;8.940;2023-03-01T14:25:01;0.10;;;0.00;;
17670;SDS011;8954;48.694;8.940;2023-03-01T14:27:35;0.23;;;0.00;;
17670;SDS011;8954;48.694;8.940;2023-03-01T14:30:10;0.00;;;0.00;;
17670;SDS011;8954;48.694;8.940;2023-03-01T14:32:39;0.00;;;0.00;;
17670;SDS011;8954;48.694;8.940;2023-03-01T14:35:24;0.00;;;0.00;;
17670;SDS011;8954;48.694;8.940;2023-03-01T14:37:52;0.00;;;0.00;;
17670;SDS011;8954;48.694;8.940;2023-03-01T14:40:31;0.00;;;0.00;;
17670;SDS011;8954;48.694;8.940;2023-03-01T14:43:00;0.10;;;0.10;;
17670;SDS011;8954;48.694;8.940;2023-03-01T14:45:35;0.10;;;0.10;;
17670;SDS011;8954;48.694;8.940;2023-03-01T14:48:02;0.20;;;0.20;;
17670;SDS011;8954;48.694;8.940;2023-03-01T14:50:30;0.30;;;0.30;;
17670;SDS011;8954;48.694;8.940;2023-03-01T14:52:59;0.43;;;0.43;;
17670;SDS011;8954;48.694;8.940;2023-03-01T14:55:31;0.50;;;0.50;;
17670;SDS011;8954;48.694;8.940;2023-03-01T14:58:03;0.77;;;0.77;;
17670;SDS011;8954;48.694;8.940;2023-03-01T15:00:31;0.60;;;0.60;;
17670;SDS011;8954;48.694;8.940;2023-03-01T15:03:01;0.00;;;0.00;;
17670;SDS011;8954;48.694;8.940;2023-03-01T15:05:40;0.00;;;0.00;;
17670;SDS011;8954;48.694;8.940;2023-03-01T15:08:07;0.43;;;0.43;;
17670;SDS011;8954;48.694;8.940;2023-03-01T15:11:02;1.30;;;1.13;;
17670;SDS011;8954;48.694;8.940;2023-03-01T15:13:31;1.37;;;1.27;;
17670;SDS011;8954;48.694;8.940;2023-03-01T15:16:02;1.70;;;1.60;;
17670;SDS011;8954;48.694;8.940;2023-03-01T15:18:32;1.77;;;1.67;;
17670;SDS011;8954;48.694;8.940;2023-03-01T15:21:06;1.53;;;1.50;;
17670;SDS011;8954;48.694;8.940;2023-03-01T15:23:40;2.00;;;1.90;;
17670;SDS011;8954;48.694;8.940;2023-03-01T15:26:16;1.70;;;1.60;;
17670;SDS011;8954;48.694;8.940;2023-03-01T15:28:49;2.10;;;1.90;;
17670;SDS011;8954;48.694;8.940;2023-03-01T15:33:49;3.37;;;2.90;;
17670;SDS011;8954;48.694;8.940;2023-03-01T15:36:32;3.10;;;2.40;;
17670;SDS011;8954;48.694;8.940;2023-03-01T15:38:58;2.77;;;2.57;;
17670;SDS011;8954;48.694;8.940;2023-03-01T15:41:26;2.90;;;2.63;;
17670;SDS011;8954;48.694;8.940;2023-03-01T15:43:57;0.00;;;0.00;;
17670;SDS011;8954;48.694;8.940;2023-03-01T15:46:26;0.10;;;0.10;;
17670;SDS011;8954;48.694;8.940;2023-03-01T15:48:56;1.20;;;1.17;;
17670;SDS011;8954;48.694;8.940;2023-03-01T15:51:35;2.00;;;1.90;;
17670;SDS011;8954;48.694;8.940;2023-03-01T15:54:14;2.33;;;2.13;;
17670;SDS011;8954;48.694;8.940;2023-03-01T15:56:44;3.70;;;3.20;;
17670;SDS011;8954;48.694;8.940;2023-03-01T15:59:10;0.00;;;0.00;;
17670;SDS011;8954;48.694;8.940;2023-03-01T16:01:38;1.13;;;0.40;;
17670;SDS011;8954;48.694;8.940;2023-03-01T16:04:04;1.47;;;1.37;;
17670;SDS011;8954;48.694;8.940;2023-03-01T16:06:29;3.00;;;2.00;;
17670;SDS011;8954;48.694;8.940;2023-03-01T16:08:55;3.20;;;3.00;;
17670;SDS011;8954;48.694;8.940;2023-03-01T16:11:21;3.20;;;3.00;;
17670;SDS011;8954;48.694;8.940;2023-03-01T16:13:47;2.60;;;2.43;;
17670;SDS011;8954;48.694;8.940;2023-03-01T16:16:14;1.85;;;1.75;;
17670;SDS011;8954;48.694;8.940;2023-03-01T16:18:47;3.00;;;2.80;;
17670;SDS011;8954;48.694;8.940;2023-03-01T16:21:18;4.13;;;3.83;;
17670;SDS011;8954;48.694;8.940;2023-03-01T16:23:46;4.13;;;3.90;;
17670;SDS011;8954;48.694;8.940;2023-03-01T16:26:12;3.87;;;3.67;;
17670;SDS011;8954;48.694;8.940;2023-03-01T16:28:39;3.73;;;3.50;;
17670;SDS011;8954;48.694;8.940;2023-03-01T16:31:05;0.00;;;0.00;;
17670;SDS011;8954;48.694;8.940;2023-03-01T16:33:31;0.53;;;0.53;;
17670;SDS011;8954;48.694;8.940;2023-03-01T16:35:58;3.17;;;2.43;;
17670;SDS011;8954;48.694;8.940;2023-03-01T16:38:26;3.67;;;3.40;;
17670;SDS011;8954;48.694;8.940;2023-03-01T16:40:52;3.80;;;3.60;;
17670;SDS011;8954;48.694;8.940;2023-03-01T16:43:18;4.37;;;4.03;;
17670;SDS011;8954;48.694;8.940;2023-03-01T16:45:44;4.27;;;3.97;;
17670;SDS011;8954;48.694;8.940;2023-03-01T16:48:10;0.00;;;0.00;;
17670;SDS011;8954;48.694;8.940;2023-03-01T16:50:36;0.83;;;0.80;;
